createdAt,value
2023-02-22T00:00:50.132Z,0.77
2023-02-22T00:02:10.497Z,0.65
2023-02-22T00:03:16.490Z,0.58
2023-02-22T00:04:21.159Z,0.44
2023-02-22T00:05:24.862Z,0.42
2023-02-22T00:06:26.490Z,0.45
2023-02-22T00:07:28.100Z,0.44
2023-02-22T00:08:32.010Z,0.47
2023-02-22T00:09:33.666Z,0.49
2023-02-22T00:10:38.345Z,0.50
2023-02-22T00:11:46.587Z,0.37
2023-02-22T00:12:51.198Z,0.41
2023-02-22T00:13:57.044Z,0.32
2023-02-22T00:14:58.680Z,0.25
2023-02-22T00:16:01.129Z,0.39
2023-02-22T00:17:02.710Z,0.34
2023-02-22T00:18:04.741Z,0.33
2023-02-22T00:19:06.337Z,0.34
2023-02-22T00:20:10.149Z,0.27
2023-02-22T00:21:13.123Z,0.19
2023-02-22T00:22:19.049Z,0.15
2023-02-22T00:23:22.140Z,0.16
2023-02-22T00:24:24.644Z,0.14
2023-02-22T00:25:26.314Z,0.24
2023-02-22T00:26:27.964Z,0.10
2023-02-22T00:27:29.559Z,0.16
2023-02-22T00:28:31.213Z,0.27
2023-02-22T00:29:34.406Z,0.23
2023-02-22T00:30:36.018Z,0.26
2023-02-22T00:31:39.234Z,0.32
2023-02-22T00:32:40.927Z,0.21
2023-02-22T00:33:42.873Z,0.26
2023-02-22T00:34:44.579Z,0.36
2023-02-22T00:35:46.339Z,0.42
2023-02-22T00:36:49.572Z,0.35
2023-02-22T00:37:53.204Z,0.30
2023-02-22T00:38:55.662Z,0.26
2023-02-22T00:39:57.201Z,0.20
2023-02-22T00:40:58.869Z,0.21
2023-02-22T00:42:00.632Z,0.09
2023-02-22T00:43:05.697Z,0.15
2023-02-22T00:44:07.269Z,0.25
2023-02-22T00:45:09.156Z,0.23
2023-02-22T00:46:10.874Z,0.21
2023-02-22T00:47:12.725Z,0.16
2023-02-22T00:48:14.687Z,0.10
2023-02-22T00:49:16.901Z,0.10
2023-02-22T00:50:19.126Z,0.11
2023-02-22T00:51:20.935Z,-0.03
2023-02-22T00:52:26.322Z,-0.07
2023-02-22T00:53:28.015Z,-0.17
2023-02-22T00:54:29.641Z,-0.12
2023-02-22T00:55:35.075Z,-0.10
2023-02-22T00:56:37.524Z,-0.10
2023-02-22T00:57:40.171Z,-0.16
2023-02-22T00:58:41.622Z,0.05
2023-02-22T00:59:43.199Z,0.01
2023-02-22T01:00:45.819Z,-0.11
2023-02-22T01:01:48.921Z,-0.14
2023-02-22T01:02:53.306Z,-0.17
2023-02-22T01:03:55.026Z,-0.16
2023-02-22T01:04:56.770Z,-0.13
2023-02-22T01:05:58.581Z,-0.11
2023-02-22T01:07:00.578Z,-0.19
2023-02-22T01:08:03.142Z,-0.15
2023-02-22T01:09:04.747Z,-0.15
2023-02-22T01:10:08.615Z,-0.13
2023-02-22T01:11:10.322Z,-0.05
2023-02-22T01:12:13.404Z,0.02
2023-02-22T01:13:15.437Z,0.31
2023-02-22T01:14:18.216Z,0.32
2023-02-22T01:15:24.494Z,0.32
2023-02-22T01:16:26.435Z,0.28
2023-02-22T01:17:28.030Z,0.24
2023-02-22T01:18:29.628Z,0.18
2023-02-22T01:19:32.307Z,0.15
2023-02-22T01:20:33.958Z,0.05
2023-02-22T01:21:35.588Z,0.05
2023-02-22T01:22:37.471Z,0.00
2023-02-22T01:23:39.077Z,-0.10
2023-02-22T01:24:40.777Z,-0.14
2023-02-22T01:25:43.483Z,-0.27
2023-02-22T01:26:52.491Z,-0.25
2023-02-22T01:27:54.787Z,-0.33
2023-02-22T01:28:56.388Z,-0.40
2023-02-22T01:29:59.969Z,-0.36
2023-02-22T01:31:02.848Z,-0.38
2023-02-22T01:32:06.569Z,-0.35
2023-02-22T01:33:09.176Z,-0.40
2023-02-22T01:34:12.868Z,-0.42
2023-02-22T01:35:18.468Z,-0.49
2023-02-22T01:36:20.115Z,-0.47
2023-02-22T01:37:21.712Z,-0.45
2023-02-22T01:38:23.246Z,-0.44
2023-02-22T01:39:24.905Z,-0.44
2023-02-22T01:40:34.195Z,-0.44
2023-02-22T01:41:36.897Z,-0.51
2023-02-22T01:42:39.805Z,-0.54
2023-02-22T01:43:41.408Z,-0.55
2023-02-22T01:44:43.032Z,-0.52
2023-02-22T01:45:54.940Z,-0.56
2023-02-22T01:46:58.256Z,-0.52
2023-02-22T01:48:14.971Z,-0.52
2023-02-22T01:49:16.761Z,-0.47
2023-02-22T01:50:18.320Z,-0.47
2023-02-22T01:51:24.873Z,-0.53
2023-02-22T01:52:26.492Z,-0.45
2023-02-22T01:53:38.282Z,-0.47
2023-02-22T01:54:43.955Z,-0.58
2023-02-22T01:55:46.753Z,-0.57
2023-02-22T01:57:00.155Z,-0.51
2023-02-22T01:58:02.773Z,-0.50
2023-02-22T01:59:06.902Z,-0.52
2023-02-22T02:00:13.015Z,-0.54
2023-02-22T02:01:19.299Z,-0.49
2023-02-22T02:02:21.697Z,-0.49
2023-02-22T02:03:27.680Z,-0.46
2023-02-22T02:04:29.323Z,-0.48
2023-02-22T02:05:31.978Z,-0.36
2023-02-22T02:06:34.812Z,-0.49
2023-02-22T02:07:37.457Z,-0.46
2023-02-22T02:08:57.275Z,-0.43
2023-02-22T02:10:01.399Z,-0.53
2023-02-22T02:11:09.247Z,-0.60
2023-02-22T02:12:12.776Z,-0.67
2023-02-22T02:13:16.120Z,-0.54
2023-02-22T02:14:18.040Z,-0.51
2023-02-22T02:15:22.584Z,-0.50
2023-02-22T02:16:41.074Z,-0.50
2023-02-22T02:17:45.235Z,-0.46
2023-02-22T02:18:46.876Z,-0.48
2023-02-22T02:19:55.840Z,-0.61
2023-02-22T02:21:18.939Z,-0.63
2023-02-22T02:23:08.380Z,-0.62
2023-02-22T02:24:34.638Z,-0.68
2023-02-22T02:25:39.179Z,-0.65
2023-02-22T02:27:11.801Z,-0.63
2023-02-22T02:28:35.187Z,-0.59
2023-02-22T02:29:48.827Z,-0.60
2023-02-22T02:31:16.834Z,-0.51
2023-02-22T02:32:46.633Z,-0.50
2023-02-22T02:33:48.250Z,-0.47
2023-02-22T02:34:55.561Z,-0.47
2023-02-22T02:36:04.126Z,-0.46
2023-02-22T02:37:18.082Z,-0.40
2023-02-22T02:38:31.683Z,-0.34
2023-02-22T02:39:53.732Z,-0.14
2023-02-22T02:40:58.315Z,-0.13
2023-02-22T02:42:00.919Z,-0.05
2023-02-22T02:43:02.309Z,-0.02
2023-02-22T02:44:14.599Z,0.03
2023-02-22T02:45:20.512Z,0.04
2023-02-22T02:46:35.469Z,0.08
2023-02-22T02:47:40.754Z,0.11
2023-02-22T02:48:51.513Z,0.15
2023-02-22T02:50:13.351Z,0.15
2023-02-22T02:51:16.201Z,0.17
2023-02-22T02:52:19.344Z,0.21
2023-02-22T02:53:27.101Z,0.22
2023-02-22T02:54:29.317Z,0.15
2023-02-22T02:55:31.891Z,0.10
2023-02-22T02:56:33.702Z,0.11
2023-02-22T02:57:35.418Z,0.04
2023-02-22T02:58:52.794Z,0.01
2023-02-22T02:59:54.419Z,0.01
2023-02-22T03:00:59.872Z,-0.01
2023-02-22T03:02:27.400Z,-0.04
2023-02-22T03:03:53.677Z,0.11
2023-02-22T03:05:13.776Z,0.16
2023-02-22T03:06:24.335Z,0.09
2023-02-22T03:07:31.762Z,0.04
2023-02-22T03:08:51.523Z,-0.07
2023-02-22T03:09:54.772Z,-0.06
2023-02-22T03:11:17.870Z,-0.03
2023-02-22T03:12:48.719Z,-0.03
2023-02-22T03:14:07.276Z,-0.06
2023-02-22T03:15:33.481Z,-0.02
2023-02-22T03:16:54.706Z,-0.11
2023-02-22T03:18:22.842Z,-0.18
2023-02-22T03:19:35.856Z,-0.18
2023-02-22T03:20:48.431Z,-0.19
2023-02-22T03:21:57.216Z,-0.18
2023-02-22T03:23:04.183Z,-0.13
2023-02-22T03:24:09.983Z,-0.10
2023-02-22T03:25:16.955Z,-0.18
2023-02-22T03:26:24.441Z,-0.16
2023-02-22T03:27:49.623Z,-0.32
2023-02-22T03:28:53.282Z,-0.31
2023-02-22T03:30:00.388Z,-0.39
2023-02-22T03:31:13.112Z,-0.45
2023-02-22T03:32:22.855Z,-0.40
2023-02-22T03:33:33.820Z,-0.49
2023-02-22T03:34:45.954Z,-0.57
2023-02-22T03:35:56.975Z,-0.62
2023-02-22T03:37:06.544Z,-0.64
2023-02-22T03:38:10.259Z,-0.53
2023-02-22T03:39:16.032Z,-0.58
2023-02-22T03:40:26.370Z,-0.60
2023-02-22T03:41:31.405Z,-0.57
2023-02-22T03:42:37.594Z,-0.57
2023-02-22T03:43:44.550Z,-0.64
2023-02-22T03:44:50.020Z,-0.65
2023-02-22T03:45:52.076Z,-0.51
2023-02-22T03:46:56.837Z,-0.38
2023-02-22T03:48:04.646Z,-0.36
2023-02-22T03:49:09.038Z,-0.28
2023-02-22T03:50:20.876Z,-0.26
2023-02-22T03:51:22.917Z,-0.27
2023-02-22T03:52:28.856Z,-0.30
2023-02-22T03:53:33.169Z,-0.36
2023-02-22T03:54:35.135Z,-0.41
2023-02-22T03:55:37.345Z,-0.40
2023-02-22T03:56:47.545Z,-0.41
2023-02-22T03:57:52.918Z,-0.41
2023-02-22T03:58:55.356Z,-0.40
2023-02-22T03:59:57.038Z,-0.37
2023-02-22T04:00:58.663Z,-0.46
2023-02-22T04:02:00.244Z,-0.43
2023-02-22T04:03:04.438Z,-0.45
2023-02-22T04:04:06.264Z,-0.45
2023-02-22T04:05:08.375Z,-0.39
2023-02-22T04:06:10.232Z,-0.48
2023-02-22T04:07:11.935Z,-0.54
2023-02-22T04:08:14.192Z,-0.57
2023-02-22T04:09:16.741Z,-0.59
2023-02-22T04:10:19.478Z,-0.53
2023-02-22T04:11:21.256Z,-0.57
2023-02-22T04:12:22.943Z,-0.59
2023-02-22T04:13:34.964Z,-0.70
2023-02-22T04:14:37.426Z,-0.65
2023-02-22T04:15:39.155Z,-0.78
2023-02-22T04:16:43.622Z,-0.78
2023-02-22T04:17:45.289Z,-0.86
2023-02-22T04:18:49.157Z,-0.86
2023-02-22T04:19:53.167Z,-0.85
2023-02-22T04:20:56.852Z,-0.82
2023-02-22T04:22:12.143Z,-0.87
2023-02-22T04:23:13.789Z,-0.84
2023-02-22T04:24:16.671Z,-0.86
2023-02-22T04:25:18.842Z,-0.87
2023-02-22T04:26:21.880Z,-0.93
2023-02-22T04:27:28.150Z,-0.95
2023-02-22T04:28:31.206Z,-0.93
2023-02-22T04:29:48.672Z,-0.97
2023-02-22T04:30:50.588Z,-0.91
2023-02-22T04:31:53.734Z,-0.95
2023-02-22T04:32:56.062Z,-0.84
2023-02-22T04:33:57.940Z,-0.94
2023-02-22T04:35:05.355Z,-0.99
2023-02-22T04:36:08.000Z,-1.03
2023-02-22T04:37:10.485Z,-0.92
2023-02-22T04:38:12.076Z,-0.79
2023-02-22T04:39:15.454Z,-0.67
2023-02-22T04:40:19.170Z,-0.77
2023-02-22T04:41:25.257Z,-0.78
2023-02-22T04:42:27.723Z,-0.71
2023-02-22T04:43:30.165Z,-0.92
2023-02-22T04:44:39.623Z,-0.82
2023-02-22T04:45:41.310Z,-0.80
2023-02-22T04:46:43.731Z,-0.59
2023-02-22T04:47:47.999Z,-0.61
2023-02-22T04:48:49.845Z,-0.60
2023-02-22T04:49:55.868Z,-0.45
2023-02-22T04:50:57.476Z,-0.50
2023-02-22T04:51:59.506Z,-0.36
2023-02-22T04:53:08.560Z,-0.48
2023-02-22T04:54:13.634Z,-0.48
2023-02-22T04:55:20.613Z,-0.58
2023-02-22T04:56:22.340Z,-0.69
2023-02-22T04:57:24.106Z,-0.75
2023-02-22T04:58:25.805Z,-0.84
2023-02-22T04:59:27.452Z,-0.76
2023-02-22T05:00:33.613Z,-0.86
2023-02-22T05:01:37.962Z,-0.86
2023-02-22T05:02:40.130Z,-0.76
2023-02-22T05:03:42.274Z,-0.81
2023-02-22T05:04:44.768Z,-0.79
2023-02-22T05:05:46.660Z,-0.90
2023-02-22T05:06:48.579Z,-1.03
2023-02-22T05:07:50.446Z,-0.95
2023-02-22T05:08:53.245Z,-0.98
2023-02-22T05:09:54.819Z,-0.99
2023-02-22T05:10:56.413Z,-1.05
2023-02-22T05:11:58.013Z,-1.07
2023-02-22T05:12:59.676Z,-1.17
2023-02-22T05:14:01.353Z,-1.15
2023-02-22T05:15:05.251Z,-1.16
2023-02-22T05:16:07.086Z,-1.10
2023-02-22T05:17:08.857Z,-1.21
2023-02-22T05:18:10.433Z,-1.24
2023-02-22T05:19:12.035Z,-1.25
2023-02-22T05:20:34.888Z,-1.25
2023-02-22T05:21:36.486Z,-1.33
2023-02-22T05:22:38.062Z,-1.31
2023-02-22T05:23:39.904Z,-1.25
2023-02-22T05:24:41.502Z,-1.22
2023-02-22T05:25:43.072Z,-1.20
2023-02-22T05:26:45.275Z,-1.20
2023-02-22T05:28:03.170Z,-1.19
2023-02-22T05:29:05.077Z,-1.22
2023-02-22T05:30:09.192Z,-1.23
2023-02-22T05:31:10.864Z,-1.17
2023-02-22T05:32:12.664Z,-1.14
2023-02-22T05:33:14.253Z,-1.13
2023-02-22T05:34:16.237Z,-1.19
2023-02-22T05:35:21.919Z,-1.23
2023-02-22T05:36:23.858Z,-1.32
2023-02-22T05:37:25.421Z,-1.32
2023-02-22T05:38:27.077Z,-1.34
2023-02-22T05:39:29.089Z,-1.24
2023-02-22T05:40:31.481Z,-1.19
2023-02-22T05:41:33.091Z,-1.02
2023-02-22T05:42:34.716Z,-1.09
2023-02-22T05:43:36.826Z,-1.19
2023-02-22T05:44:38.461Z,-1.23
2023-02-22T05:45:40.073Z,-1.28
2023-02-22T05:46:41.729Z,-1.25
2023-02-22T05:47:43.353Z,-1.23
2023-02-22T05:48:44.935Z,-1.26
2023-02-22T05:49:46.538Z,-1.29
2023-02-22T05:50:49.886Z,-1.30
2023-02-22T05:51:51.790Z,-1.38
2023-02-22T05:52:53.646Z,-1.49
2023-02-22T05:53:55.226Z,-1.37
2023-02-22T05:54:56.975Z,-1.41
2023-02-22T05:55:58.627Z,-1.38
2023-02-22T05:57:01.013Z,-1.36
2023-02-22T05:58:05.745Z,-1.41
2023-02-22T05:59:07.391Z,-1.38
2023-02-22T06:00:10.533Z,-1.43
2023-02-22T06:01:14.930Z,-1.39
2023-02-22T06:02:16.621Z,-1.33
2023-02-22T06:03:18.276Z,-1.35
2023-02-22T06:04:20.168Z,-1.31
2023-02-22T06:05:22.046Z,-1.45
2023-02-22T06:06:23.647Z,-1.45
2023-02-22T06:07:25.365Z,-1.35
2023-02-22T06:08:26.993Z,-1.39
2023-02-22T06:09:28.747Z,-1.27
2023-02-22T06:10:30.746Z,-1.26
2023-02-22T06:11:32.383Z,-1.25
2023-02-22T06:12:34.010Z,-1.20
2023-02-22T06:13:36.369Z,-1.31
2023-02-22T06:14:38.014Z,-1.32
2023-02-22T06:15:39.618Z,-1.32
2023-02-22T06:16:41.211Z,-1.26
2023-02-22T06:17:43.132Z,-1.28
2023-02-22T06:18:44.958Z,-1.35
2023-02-22T06:19:46.508Z,-1.29
2023-02-22T06:20:48.255Z,-1.43
2023-02-22T06:21:51.540Z,-1.47
2023-02-22T06:22:56.128Z,-1.39
2023-02-22T06:23:57.793Z,-1.41
2023-02-22T06:24:59.372Z,-1.35
2023-02-22T06:26:01.029Z,-1.36
2023-02-22T06:27:02.667Z,-1.31
2023-02-22T06:28:04.608Z,-1.31
2023-02-22T06:29:06.210Z,-1.26
2023-02-22T06:30:10.795Z,-1.37
2023-02-22T06:31:13.499Z,-1.38
2023-02-22T06:32:15.224Z,-1.36
2023-02-22T06:33:16.898Z,-1.25
2023-02-22T06:34:18.768Z,-1.28
2023-02-22T06:35:20.870Z,-1.25
2023-02-22T06:36:22.469Z,-1.20
2023-02-22T06:37:24.063Z,-1.24
2023-02-22T06:38:27.831Z,-1.32
2023-02-22T06:39:29.502Z,-1.30
2023-02-22T06:40:31.168Z,-1.18
2023-02-22T06:41:32.745Z,-1.14
2023-02-22T06:42:34.462Z,-1.10
2023-02-22T06:43:36.066Z,-1.06
2023-02-22T06:44:37.660Z,-1.09
2023-02-22T06:45:39.293Z,-0.93
2023-02-22T06:46:47.375Z,-0.93
2023-02-22T06:47:49.755Z,-0.97
2023-02-22T06:48:52.124Z,-0.97
2023-02-22T06:49:57.519Z,-0.89
2023-02-22T06:50:59.090Z,-0.95
2023-02-22T06:52:00.761Z,-0.82
2023-02-22T06:53:02.384Z,-0.78
2023-02-22T06:54:04.497Z,-0.74
2023-02-22T06:55:06.193Z,-0.53
2023-02-22T06:56:07.774Z,-0.70
2023-02-22T06:57:10.240Z,-0.66
2023-02-22T06:58:11.819Z,-0.61
2023-02-22T06:59:13.447Z,-0.53
2023-02-22T07:00:17.571Z,-0.43
2023-02-22T07:01:19.463Z,-0.38
2023-02-22T07:02:21.311Z,-0.37
2023-02-22T07:03:23.052Z,-0.38
2023-02-22T07:04:24.702Z,-0.21
2023-02-22T07:05:27.382Z,-0.07
2023-02-22T07:06:28.962Z,0.04
2023-02-22T07:07:30.635Z,0.08
2023-02-22T07:08:32.195Z,0.12
2023-02-22T07:09:33.819Z,0.13
2023-02-22T07:10:36.446Z,0.18
2023-02-22T07:11:38.628Z,0.30
2023-02-22T07:12:40.198Z,0.40
2023-02-22T07:13:41.794Z,0.63
2023-02-22T07:14:43.384Z,0.65
2023-02-22T07:15:45.043Z,0.70
2023-02-22T07:16:46.755Z,0.79
2023-02-22T07:17:48.524Z,0.93
2023-02-22T07:18:50.121Z,1.05
2023-02-22T07:19:51.723Z,1.07
2023-02-22T07:20:54.268Z,1.20
2023-02-22T07:21:59.248Z,1.44
2023-02-22T07:23:01.418Z,1.57
2023-02-22T07:24:05.411Z,1.72
2023-02-22T07:25:10.000Z,2.00
2023-02-22T07:26:12.179Z,2.40
2023-02-22T07:27:13.821Z,2.94
2023-02-22T07:28:15.658Z,3.30
2023-02-22T07:29:17.309Z,3.70
2023-02-22T07:30:25.350Z,3.71
2023-02-22T07:31:29.556Z,3.99
2023-02-22T07:32:31.427Z,3.92
2023-02-22T07:33:33.152Z,4.18
2023-02-22T07:34:34.737Z,4.21
2023-02-22T07:35:39.754Z,4.46
2023-02-22T07:36:41.412Z,4.50
2023-02-22T07:37:43.300Z,4.91
2023-02-22T07:38:45.827Z,4.89
2023-02-22T07:39:47.290Z,4.85
2023-02-22T07:40:48.849Z,4.83
2023-02-22T07:41:50.420Z,4.65
2023-02-22T07:43:01.332Z,4.63
2023-02-22T07:44:02.966Z,4.84
2023-02-22T07:45:04.829Z,5.36
2023-02-22T07:46:06.587Z,5.61
2023-02-22T07:47:08.964Z,5.93
2023-02-22T07:48:12.551Z,6.06
2023-02-22T07:49:14.956Z,6.00
2023-02-22T07:50:17.645Z,6.57
2023-02-22T07:51:20.771Z,7.23
2023-02-22T07:52:22.493Z,7.59
2023-02-22T07:53:30.124Z,7.42
2023-02-22T07:54:31.795Z,7.16
2023-02-22T07:55:34.028Z,7.14
2023-02-22T07:56:35.744Z,6.87
2023-02-22T07:57:37.356Z,7.27
2023-02-22T07:58:39.008Z,6.66
2023-02-22T07:59:40.585Z,6.74
2023-02-22T08:00:44.018Z,6.99
2023-02-22T08:01:45.602Z,6.85
2023-02-22T08:02:47.304Z,6.56
2023-02-22T08:03:49.033Z,6.46
2023-02-22T08:04:50.656Z,6.23
2023-02-22T08:05:56.837Z,6.50
2023-02-22T08:06:58.485Z,6.31
2023-02-22T08:08:00.160Z,6.74
2023-02-22T08:09:01.783Z,7.03
2023-02-22T08:10:06.679Z,6.94
2023-02-22T08:11:08.407Z,7.04
2023-02-22T08:12:10.000Z,7.18
2023-02-22T08:13:11.715Z,7.18
2023-02-22T08:14:16.378Z,7.49
2023-02-22T08:15:24.963Z,7.46
2023-02-22T08:16:26.480Z,7.58
2023-02-22T08:17:28.145Z,7.16
2023-02-22T08:18:29.738Z,7.17
2023-02-22T08:19:31.408Z,7.46
2023-02-22T08:20:32.993Z,7.71
2023-02-22T08:21:34.614Z,8.40
2023-02-22T08:22:36.222Z,8.67
2023-02-22T08:23:38.857Z,8.67
2023-02-22T08:24:40.671Z,8.73
2023-02-22T08:25:42.457Z,8.47
2023-02-22T08:26:47.313Z,9.09
2023-02-22T08:27:48.968Z,8.87
2023-02-22T08:28:50.685Z,9.24
2023-02-22T08:29:52.823Z,9.52
2023-02-22T08:30:54.449Z,9.70
2023-02-22T08:31:56.351Z,9.99
2023-02-22T08:32:58.929Z,10.34
2023-02-22T08:34:01.106Z,10.70
2023-02-22T08:35:03.096Z,10.77
2023-02-22T08:36:05.144Z,11.40
2023-02-22T08:37:06.949Z,11.86
2023-02-22T08:38:16.639Z,12.23
2023-02-22T08:39:18.282Z,12.12
2023-02-22T08:40:22.409Z,12.68
2023-02-22T08:41:24.089Z,12.82
2023-02-22T08:42:25.629Z,13.23
2023-02-22T08:43:28.486Z,13.19
2023-02-22T08:44:30.106Z,13.24
2023-02-22T08:45:31.830Z,13.42
2023-02-22T08:46:33.469Z,13.02
2023-02-22T08:47:35.053Z,12.57
2023-02-22T08:48:36.696Z,12.23
2023-02-22T08:49:38.311Z,12.62
2023-02-22T08:50:41.845Z,12.71
2023-02-22T08:51:43.510Z,12.81
2023-02-22T08:52:45.139Z,12.36
2023-02-22T08:53:46.801Z,12.03
2023-02-22T08:54:48.558Z,12.24
2023-02-22T08:55:50.160Z,12.14
2023-02-22T08:56:51.761Z,11.44
2023-02-22T08:57:53.361Z,11.02
2023-02-22T08:58:55.898Z,10.90
2023-02-22T08:59:57.509Z,10.40
2023-02-22T09:00:59.103Z,10.45
2023-02-22T09:02:02.770Z,10.22
2023-02-22T09:03:07.000Z,9.96
2023-02-22T09:04:08.712Z,9.59
2023-02-22T09:05:10.519Z,9.64
2023-02-22T09:06:12.131Z,9.36
2023-02-22T09:07:14.145Z,9.50
2023-02-22T09:08:16.669Z,9.51
2023-02-22T09:09:21.321Z,9.80
2023-02-22T09:10:28.564Z,10.76
2023-02-22T09:11:30.198Z,11.61
2023-02-22T09:12:31.859Z,12.73
2023-02-22T09:13:33.494Z,13.26
2023-02-22T09:14:35.237Z,13.72
2023-02-22T09:15:37.250Z,14.46
2023-02-22T09:16:38.882Z,14.18
2023-02-22T09:17:40.504Z,13.38
2023-02-22T09:18:44.329Z,13.41
2023-02-22T09:19:46.210Z,13.69
2023-02-22T09:20:47.790Z,13.85
2023-02-22T09:22:00.097Z,14.42
2023-02-22T09:23:02.972Z,14.00
2023-02-22T09:24:08.465Z,13.51
2023-02-22T09:25:16.660Z,13.34
2023-02-22T09:26:18.807Z,13.67
2023-02-22T09:27:20.471Z,14.52
2023-02-22T09:28:22.283Z,14.32
2023-02-22T09:29:26.137Z,14.01
2023-02-22T09:30:31.948Z,13.89
2023-02-22T09:31:36.605Z,14.09
2023-02-22T09:32:38.482Z,14.48
2023-02-22T09:33:41.485Z,15.01
2023-02-22T09:34:45.876Z,15.74
2023-02-22T09:35:49.829Z,16.25
2023-02-22T09:36:51.425Z,15.79
2023-02-22T09:37:54.875Z,16.11
2023-02-22T09:38:58.845Z,15.66
2023-02-22T09:40:00.514Z,15.54
2023-02-22T09:41:12.405Z,15.03
2023-02-22T09:42:17.188Z,15.39
2023-02-22T09:43:18.901Z,14.29
2023-02-22T09:44:28.448Z,14.39
2023-02-22T09:45:48.324Z,13.79
2023-02-22T09:46:51.132Z,12.94
2023-02-22T09:47:57.668Z,12.76
2023-02-22T09:49:06.233Z,12.31
2023-02-22T09:50:16.632Z,12.02
2023-02-22T09:51:23.334Z,11.78
2023-02-22T09:52:37.403Z,12.62
2023-02-22T09:53:42.560Z,13.36
2023-02-22T09:54:51.961Z,14.16
2023-02-22T09:55:57.301Z,14.98
2023-02-22T09:57:02.991Z,15.80
2023-02-22T09:58:17.688Z,16.26
2023-02-22T09:59:26.980Z,14.85
2023-02-22T10:00:33.901Z,15.69
2023-02-22T10:01:41.033Z,16.63
2023-02-22T10:02:45.389Z,16.65
2023-02-22T10:03:56.479Z,16.26
2023-02-22T10:05:34.647Z,17.08
2023-02-22T10:06:37.269Z,16.85
2023-02-22T10:07:48.630Z,16.35
2023-02-22T10:08:56.376Z,15.78
2023-02-22T10:09:58.827Z,14.90
2023-02-22T10:11:19.359Z,15.22
2023-02-22T10:12:31.118Z,15.97
2023-02-22T10:13:42.172Z,15.71
2023-02-22T10:15:08.439Z,15.34
2023-02-22T10:16:19.440Z,15.63
2023-02-22T10:17:40.522Z,15.19
2023-02-22T10:19:08.299Z,14.81
2023-02-22T10:20:28.661Z,15.12
2023-02-22T10:21:45.303Z,16.08
2023-02-22T10:22:56.828Z,15.87
2023-02-22T10:24:24.704Z,15.55
2023-02-22T10:25:28.086Z,15.66
2023-02-22T10:26:32.731Z,16.00
2023-02-22T10:27:40.322Z,16.48
2023-02-22T10:28:47.934Z,16.30
2023-02-22T10:29:54.196Z,16.78
2023-02-22T10:31:05.141Z,16.32
2023-02-22T10:32:14.027Z,16.53
2023-02-22T10:33:19.122Z,17.42
2023-02-22T10:34:29.795Z,17.08
2023-02-22T10:35:35.297Z,17.25
2023-02-22T10:36:39.163Z,17.12
2023-02-22T10:37:40.761Z,16.71
2023-02-22T10:38:48.825Z,17.61
2023-02-22T10:39:52.976Z,18.82
2023-02-22T10:41:24.018Z,18.59
2023-02-22T10:42:27.231Z,18.47
2023-02-22T10:43:29.558Z,18.67
2023-02-22T10:44:32.519Z,17.85
2023-02-22T10:45:36.984Z,17.25
2023-02-22T10:46:40.044Z,17.03
2023-02-22T10:47:41.667Z,16.48
2023-02-22T10:48:45.848Z,17.14
2023-02-22T10:49:51.436Z,16.56
2023-02-22T10:50:54.860Z,16.55
2023-02-22T10:52:04.731Z,16.63
2023-02-22T10:53:07.610Z,16.84
2023-02-22T10:54:15.079Z,17.65
2023-02-22T10:55:19.752Z,17.95
2023-02-22T10:56:23.118Z,16.74
2023-02-22T10:57:32.102Z,18.43
2023-02-22T10:59:04.192Z,18.86
2023-02-22T11:00:29.657Z,19.92
2023-02-22T11:01:31.277Z,19.86
2023-02-22T11:02:35.572Z,20.20
2023-02-22T11:03:37.198Z,19.66
2023-02-22T11:04:51.343Z,17.70
2023-02-22T11:05:53.421Z,17.82
2023-02-22T11:07:00.801Z,16.70
2023-02-22T11:08:23.003Z,15.47
2023-02-22T11:09:24.606Z,14.82
2023-02-22T11:10:32.255Z,14.80
2023-02-22T11:11:34.077Z,15.76
2023-02-22T11:12:38.406Z,17.88
2023-02-22T11:13:40.326Z,18.75
2023-02-22T11:14:42.622Z,18.88
2023-02-22T11:15:44.906Z,19.65
2023-02-22T11:16:50.705Z,19.74
2023-02-22T11:17:55.212Z,20.13
2023-02-22T11:19:25.786Z,20.66
2023-02-22T11:20:35.620Z,21.02
2023-02-22T11:21:37.563Z,20.81
2023-02-22T11:22:41.314Z,20.79
2023-02-22T11:23:44.957Z,21.25
2023-02-22T11:25:15.099Z,21.48
2023-02-22T11:26:20.733Z,21.87
2023-02-22T11:27:34.029Z,21.86
2023-02-22T11:28:36.358Z,21.24
2023-02-22T11:29:37.908Z,20.85
2023-02-22T11:30:39.694Z,20.26
2023-02-22T11:31:45.688Z,21.33
2023-02-22T11:32:50.666Z,22.27
2023-02-22T11:35:20.533Z,23.27
2023-02-22T11:36:42.995Z,22.01
2023-02-22T11:37:44.682Z,21.98
2023-02-22T11:38:56.173Z,21.04
2023-02-22T11:40:22.346Z,20.24
2023-02-22T11:41:30.752Z,19.72
2023-02-22T11:42:32.250Z,20.05
2023-02-22T11:43:34.513Z,20.10
2023-02-22T11:44:36.055Z,20.55
2023-02-22T11:45:44.169Z,20.14
2023-02-22T11:46:48.929Z,19.31
2023-02-22T11:47:52.480Z,17.99
2023-02-22T11:48:56.964Z,17.78
2023-02-22T11:49:58.605Z,17.93
2023-02-22T11:51:27.390Z,18.21
2023-02-22T11:52:37.206Z,18.13
2023-02-22T11:54:28.612Z,18.10
2023-02-22T11:55:43.084Z,18.37
2023-02-22T11:56:48.988Z,18.22
2023-02-22T11:58:04.486Z,17.59
2023-02-22T11:59:13.027Z,17.81
2023-02-22T12:00:39.460Z,18.49
2023-02-22T12:02:22.501Z,18.30
2023-02-22T12:03:24.074Z,18.13
2023-02-22T12:04:43.797Z,17.86
2023-02-22T12:06:07.030Z,17.91
2023-02-22T12:07:15.418Z,18.08
2023-02-22T12:08:30.021Z,17.89
2023-02-22T12:09:34.378Z,17.23
2023-02-22T12:10:55.845Z,17.27
2023-02-22T12:12:16.722Z,17.10
2023-02-22T12:13:36.701Z,17.15
2023-02-22T12:14:59.716Z,16.91
2023-02-22T12:16:16.987Z,16.57
2023-02-22T12:17:54.329Z,16.67
2023-02-22T12:18:59.922Z,16.86
2023-02-22T12:20:24.791Z,16.61
2023-02-22T12:21:29.774Z,16.53
2023-02-22T12:22:36.759Z,16.39
2023-02-22T12:23:54.842Z,16.91
2023-02-22T12:25:09.711Z,16.73
2023-02-22T12:26:20.296Z,16.56
2023-02-22T12:27:28.431Z,17.02
2023-02-22T12:28:51.645Z,17.01
2023-02-22T12:30:34.989Z,16.60
2023-02-22T12:31:40.021Z,16.33
2023-02-22T12:32:46.315Z,16.50
2023-02-22T12:34:27.313Z,16.62
2023-02-22T12:35:34.882Z,16.68
2023-02-22T12:36:47.205Z,16.44
2023-02-22T12:37:56.338Z,16.53
2023-02-22T12:39:07.380Z,16.80
2023-02-22T12:40:24.578Z,17.02
2023-02-22T12:41:54.640Z,16.74
2023-02-22T12:42:56.166Z,16.56
2023-02-22T12:44:04.293Z,16.72
2023-02-22T12:45:13.956Z,16.43
2023-02-22T12:46:26.901Z,16.08
2023-02-22T12:47:37.338Z,15.66
2023-02-22T12:48:44.976Z,15.79
2023-02-22T12:50:00.428Z,16.06
2023-02-22T12:51:21.850Z,16.07
2023-02-22T12:52:49.607Z,16.13
2023-02-22T12:54:05.039Z,15.88
2023-02-22T12:55:15.983Z,15.84
2023-02-22T12:56:37.600Z,15.77
2023-02-22T12:57:57.162Z,15.98
2023-02-22T12:59:32.694Z,15.98
2023-02-22T13:00:44.870Z,15.88
2023-02-22T13:01:52.201Z,15.88
2023-02-22T13:03:22.378Z,15.86
2023-02-22T13:04:24.088Z,15.61
2023-02-22T13:05:26.187Z,15.57
2023-02-22T13:06:36.516Z,15.83
2023-02-22T13:08:06.184Z,15.88
2023-02-22T13:09:12.971Z,16.05
2023-02-22T13:10:32.475Z,16.01
2023-02-22T13:11:41.407Z,16.12
2023-02-22T13:12:55.135Z,15.76
2023-02-22T13:14:21.573Z,15.44
2023-02-22T13:15:52.665Z,15.48
2023-02-22T13:17:07.708Z,15.60
2023-02-22T13:18:25.732Z,15.53
2023-02-22T13:19:53.559Z,15.66
2023-02-22T13:21:01.861Z,15.66
2023-02-22T13:22:13.374Z,15.63
2023-02-22T13:23:53.422Z,15.57
2023-02-22T13:25:28.149Z,15.24
2023-02-22T13:26:40.223Z,15.21
2023-02-22T13:28:06.579Z,15.30
2023-02-22T13:29:13.864Z,15.27
2023-02-22T13:30:20.726Z,15.23
2023-02-22T13:31:40.873Z,15.18
2023-02-22T13:32:51.322Z,15.02
2023-02-22T13:34:16.507Z,14.88
2023-02-22T13:35:35.572Z,14.72
2023-02-22T13:36:48.777Z,14.78
2023-02-22T13:37:56.317Z,14.80
2023-02-22T13:39:07.898Z,14.71
2023-02-22T13:40:47.476Z,14.67
2023-02-22T13:41:55.201Z,14.71
2023-02-22T13:43:13.882Z,14.71
2023-02-22T13:44:15.360Z,14.78
2023-02-22T13:45:54.760Z,14.83
2023-02-22T13:47:05.490Z,14.85
2023-02-22T13:48:42.884Z,14.81
2023-02-22T13:50:18.070Z,14.77
2023-02-22T13:51:38.031Z,14.58
2023-02-22T13:52:40.356Z,14.69
2023-02-22T13:53:55.511Z,14.73
2023-02-22T13:55:03.188Z,14.65
2023-02-22T13:56:04.868Z,14.64
2023-02-22T13:57:20.025Z,14.63
2023-02-22T13:58:21.657Z,14.60
2023-02-22T13:59:41.512Z,14.62
2023-02-22T14:00:49.254Z,14.67
2023-02-22T14:01:53.484Z,14.67
2023-02-22T14:03:02.996Z,14.72
2023-02-22T14:04:28.850Z,14.72
2023-02-22T14:05:49.741Z,14.70
2023-02-22T14:06:51.638Z,14.59
2023-02-22T14:07:53.230Z,14.66
2023-02-22T14:08:54.848Z,14.69
2023-02-22T14:09:59.155Z,14.78
2023-02-22T14:11:02.165Z,14.69
2023-02-22T14:12:04.204Z,14.49
2023-02-22T14:13:07.613Z,14.54
2023-02-22T14:14:10.849Z,14.56
2023-02-22T14:15:29.837Z,14.53
2023-02-22T14:16:33.887Z,14.56
2023-02-22T14:17:39.563Z,14.46
2023-02-22T14:18:44.768Z,14.53
2023-02-22T14:20:21.622Z,14.52
2023-02-22T14:21:23.565Z,14.38
2023-02-22T14:22:29.820Z,14.33
2023-02-22T14:24:03.618Z,14.26
2023-02-22T14:25:05.598Z,14.17
2023-02-22T14:26:32.333Z,14.34
2023-02-22T14:27:40.986Z,14.40
2023-02-22T14:29:21.795Z,14.55